createdAt,value
2022-09-01T00:00:15.623Z,15.02
2022-09-01T00:01:15.652Z,15.01
2022-09-01T00:02:15.692Z,15.02
2022-09-01T00:03:15.603Z,15.01
2022-09-01T00:04:15.659Z,14.99
2022-09-01T00:05:15.582Z,14.95
2022-09-01T00:06:15.564Z,14.94
2022-09-01T00:07:15.552Z,14.91
2022-09-01T00:08:16.278Z,14.91
2022-09-01T00:09:15.533Z,14.91
2022-09-01T00:10:15.534Z,14.91
2022-09-01T00:11:15.550Z,14.90
2022-09-01T00:12:15.505Z,14.88
2022-09-01T00:13:15.486Z,14.88
2022-09-01T00:14:30.225Z,14.88
2022-09-01T00:15:16.461Z,14.90
2022-09-01T00:16:15.472Z,14.87
2022-09-01T00:17:15.464Z,14.88
2022-09-01T00:18:15.503Z,14.87
2022-09-01T00:19:15.425Z,14.84
2022-09-01T00:20:20.090Z,14.84
2022-09-01T00:21:16.426Z,14.83
2022-09-01T00:22:15.399Z,14.81
2022-09-01T00:23:15.376Z,14.81
2022-09-01T00:24:15.358Z,14.80
2022-09-01T00:25:15.355Z,14.78
2022-09-01T00:26:15.358Z,14.78
2022-09-01T00:27:15.335Z,14.74
2022-09-01T00:28:15.316Z,14.75
2022-09-01T00:29:15.314Z,14.72
2022-09-01T00:30:15.310Z,14.72
2022-09-01T00:31:15.391Z,14.72
2022-09-01T00:32:15.297Z,14.74
2022-09-01T00:33:15.267Z,14.72
2022-09-01T00:34:15.257Z,14.71
2022-09-01T00:35:15.248Z,14.69
2022-09-01T00:36:15.227Z,14.68
2022-09-01T00:37:15.248Z,14.65
2022-09-01T00:38:15.207Z,14.67
2022-09-01T00:39:15.200Z,14.65
2022-09-01T00:40:15.246Z,14.62
2022-09-01T00:41:15.212Z,14.60
2022-09-01T00:42:15.187Z,14.60
2022-09-01T00:43:15.158Z,14.60
2022-09-01T00:44:15.140Z,14.61
2022-09-01T00:45:15.128Z,14.60
2022-09-01T00:46:15.196Z,14.57
2022-09-01T00:47:16.130Z,14.56
2022-09-01T00:48:15.100Z,14.52
2022-09-01T00:49:15.093Z,14.50
2022-09-01T00:50:15.081Z,14.50
2022-09-01T00:51:15.090Z,14.52
2022-09-01T00:52:16.004Z,14.52
2022-09-01T00:53:15.049Z,14.49
2022-09-01T00:54:15.033Z,14.49
2022-09-01T00:55:15.030Z,14.46
2022-09-01T00:56:15.041Z,14.49
2022-09-01T00:57:15.001Z,14.49
2022-09-01T00:58:19.612Z,14.47
2022-09-01T00:59:15.980Z,14.46
2022-09-01T01:00:14.971Z,14.46
2022-09-01T01:01:15.011Z,14.44
2022-09-01T01:02:15.061Z,14.42
2022-09-01T01:03:14.934Z,14.39
2022-09-01T01:04:14.938Z,14.35
2022-09-01T01:05:15.225Z,14.35
2022-09-01T01:06:14.903Z,14.31
2022-09-01T01:07:14.923Z,14.28
2022-09-01T01:08:14.883Z,14.29
2022-09-01T01:09:14.873Z,14.27
2022-09-01T01:10:14.863Z,14.21
2022-09-01T01:11:14.863Z,14.19
2022-09-01T01:12:14.843Z,14.17
2022-09-01T01:13:14.824Z,14.12
2022-09-01T01:14:14.813Z,14.07
2022-09-01T01:15:14.810Z,14.04
2022-09-01T01:16:14.853Z,14.04
2022-09-01T01:17:14.777Z,13.99
2022-09-01T01:18:14.802Z,14.01
2022-09-01T01:19:14.755Z,14.01
2022-09-01T01:20:14.753Z,13.95
2022-09-01T01:21:14.754Z,13.92
2022-09-01T01:22:14.735Z,13.91
2022-09-01T01:23:14.713Z,13.89
2022-09-01T01:24:14.705Z,13.88
2022-09-01T01:25:14.694Z,13.87
2022-09-01T01:26:14.717Z,13.83
2022-09-01T01:27:14.673Z,13.81
2022-09-01T01:28:14.656Z,13.80
2022-09-01T01:29:14.674Z,13.79
2022-09-01T01:30:14.636Z,13.76
2022-09-01T01:31:14.712Z,13.77
2022-09-01T01:32:14.617Z,13.77
2022-09-01T01:33:14.607Z,13.76
2022-09-01T01:34:14.617Z,13.74
2022-09-01T01:35:14.583Z,13.74
2022-09-01T01:36:14.576Z,13.73
2022-09-01T01:37:14.557Z,13.69
2022-09-01T01:38:14.576Z,13.70
2022-09-01T01:39:14.538Z,13.69
2022-09-01T01:40:14.561Z,13.70
2022-09-01T01:41:14.521Z,13.70
2022-09-01T01:42:14.507Z,13.65
2022-09-01T01:43:14.496Z,13.63
2022-09-01T01:44:14.509Z,13.62
2022-09-01T01:45:14.477Z,13.63
2022-09-01T01:46:14.612Z,13.62
2022-09-01T01:47:14.447Z,13.59
2022-09-01T01:48:14.448Z,13.58
2022-09-01T01:49:14.447Z,13.58
2022-09-01T01:50:14.429Z,13.54
2022-09-01T01:51:14.427Z,13.54
2022-09-01T01:52:14.397Z,13.49
2022-09-01T01:53:14.391Z,13.46
2022-09-01T01:54:14.378Z,13.44
2022-09-01T01:55:14.369Z,13.43
2022-09-01T01:56:14.377Z,13.43
2022-09-01T01:57:14.347Z,13.41
2022-09-01T01:58:14.338Z,13.40
2022-09-01T01:59:14.320Z,13.37
2022-09-01T02:00:14.332Z,13.37
2022-09-01T02:01:14.400Z,13.29
2022-09-01T02:02:14.322Z,13.25
2022-09-01T02:03:14.301Z,13.25
2022-09-01T02:04:14.270Z,13.21
2022-09-01T02:05:14.260Z,13.17
2022-09-01T02:06:14.270Z,13.15
2022-09-01T02:07:14.236Z,13.11
2022-09-01T02:08:14.231Z,13.11
2022-09-01T02:09:14.218Z,13.06
2022-09-01T02:10:14.222Z,13.07
2022-09-01T02:11:14.190Z,13.06
2022-09-01T02:12:14.972Z,13.04
2022-09-01T02:13:14.162Z,13.04
2022-09-01T02:14:14.162Z,13.03
2022-09-01T02:15:14.182Z,13.02
2022-09-01T02:16:14.181Z,13.03
2022-09-01T02:17:14.122Z,13.02
2022-09-01T02:18:14.131Z,13.00
2022-09-01T02:19:14.104Z,13.02
2022-09-01T02:20:14.094Z,13.00
2022-09-01T02:21:18.311Z,12.99
2022-09-01T02:22:14.074Z,12.97
2022-09-01T02:23:21.851Z,12.97
2022-09-01T02:24:14.054Z,12.99
2022-09-01T02:25:14.083Z,12.97
2022-09-01T02:26:16.853Z,12.96
2022-09-01T02:27:14.021Z,12.96
2022-09-01T02:28:14.011Z,12.95
2022-09-01T02:29:13.992Z,12.95
2022-09-01T02:30:13.984Z,12.93
2022-09-01T02:31:14.063Z,12.92
2022-09-01T02:32:13.965Z,12.88
2022-09-01T02:33:13.953Z,12.89
2022-09-01T02:34:14.017Z,12.92
2022-09-01T02:35:13.924Z,12.97
2022-09-01T02:36:13.954Z,13.00
2022-09-01T02:37:13.904Z,13.00
2022-09-01T02:38:13.896Z,12.97
2022-09-01T02:39:13.884Z,12.97
2022-09-01T02:40:13.911Z,12.96
2022-09-01T02:41:13.864Z,12.96
2022-09-01T02:42:13.875Z,12.96
2022-09-01T02:43:13.844Z,12.96
2022-09-01T02:44:13.834Z,12.97
2022-09-01T02:45:13.821Z,12.96
2022-09-01T02:46:13.897Z,12.95
2022-09-01T02:47:13.802Z,12.93
2022-09-01T02:48:13.793Z,12.96
2022-09-01T02:49:13.775Z,12.97
2022-09-01T02:50:13.773Z,12.97
2022-09-01T02:51:13.756Z,12.95
2022-09-01T02:52:13.781Z,12.96
2022-09-01T02:53:13.735Z,12.95
2022-09-01T02:54:13.727Z,12.93
2022-09-01T02:55:13.715Z,12.89
2022-09-01T02:56:13.710Z,12.89
2022-09-01T02:57:13.709Z,12.89
2022-09-01T02:58:13.758Z,12.92
2022-09-01T02:59:13.675Z,12.95
2022-09-01T03:00:13.657Z,12.93
2022-09-01T03:01:13.746Z,12.93
2022-09-01T03:02:13.636Z,12.89
2022-09-01T03:03:13.626Z,12.88
2022-09-01T03:04:13.638Z,12.88
2022-09-01T03:05:13.655Z,12.88
2022-09-01T03:06:13.599Z,12.88
2022-09-01T03:07:13.578Z,12.89
2022-09-01T03:08:13.606Z,12.92
2022-09-01T03:09:13.558Z,12.92
2022-09-01T03:10:13.557Z,12.95
2022-09-01T03:11:13.594Z,12.93
2022-09-01T03:12:13.530Z,12.92
2022-09-01T03:13:13.520Z,12.89
2022-09-01T03:14:13.527Z,12.88
2022-09-01T03:15:13.489Z,12.88
2022-09-01T03:16:13.559Z,12.87
2022-09-01T03:17:13.476Z,12.85
2022-09-01T03:18:13.473Z,12.87
2022-09-01T03:19:13.469Z,12.88
2022-09-01T03:20:13.472Z,12.87
2022-09-01T03:21:13.430Z,12.88
2022-09-01T03:22:13.430Z,12.92
2022-09-01T03:23:13.411Z,12.93
2022-09-01T03:24:13.436Z,12.96
2022-09-01T03:25:13.417Z,13.00
2022-09-01T03:26:13.383Z,13.03
2022-09-01T03:27:13.367Z,13.06
2022-09-01T03:28:13.400Z,13.09
2022-09-01T03:29:13.348Z,13.12
2022-09-01T03:30:13.360Z,13.14
2022-09-01T03:31:13.328Z,13.15
2022-09-01T03:32:13.385Z,13.17
2022-09-01T03:33:13.302Z,13.17
2022-09-01T03:34:13.301Z,13.20
2022-09-01T03:35:13.280Z,13.21
2022-09-01T03:36:15.198Z,13.21
2022-09-01T03:37:13.259Z,13.22
2022-09-01T03:38:13.249Z,13.21
2022-09-01T03:39:16.613Z,13.21
2022-09-01T03:40:13.246Z,13.21
2022-09-01T03:41:13.570Z,13.17
2022-09-01T03:42:13.211Z,13.14
2022-09-01T03:43:13.192Z,13.09
2022-09-01T03:44:13.183Z,13.04
2022-09-01T03:45:13.180Z,13.00
2022-09-01T03:46:13.226Z,12.97
2022-09-01T03:47:13.152Z,12.93
2022-09-01T03:48:13.142Z,12.87
2022-09-01T03:49:13.132Z,12.87
2022-09-01T03:50:13.121Z,12.84
2022-09-01T03:51:13.123Z,12.81
2022-09-01T03:52:13.095Z,12.78
2022-09-01T03:53:13.084Z,12.75
2022-09-01T03:54:13.072Z,12.70
2022-09-01T03:55:13.063Z,12.66
2022-09-01T03:56:13.073Z,12.60
2022-09-01T03:57:13.847Z,12.59
2022-09-01T03:58:13.035Z,12.56
2022-09-01T03:59:13.025Z,12.52
2022-09-01T04:00:13.007Z,12.46
2022-09-01T04:01:13.703Z,12.42
2022-09-01T04:02:13.052Z,12.38
2022-09-01T04:03:12.976Z,12.37
2022-09-01T04:04:12.963Z,12.33
2022-09-01T04:05:12.953Z,12.29
2022-09-01T04:06:12.946Z,12.29
2022-09-01T04:07:18.979Z,12.29
2022-09-01T04:08:13.923Z,12.24
2022-09-01T04:09:12.918Z,12.23
2022-09-01T04:10:12.907Z,12.16
2022-09-01T04:11:12.897Z,12.12
2022-09-01T04:12:12.901Z,12.09
2022-09-01T04:13:12.866Z,12.08
2022-09-01T04:14:12.864Z,12.02
2022-09-01T04:15:12.855Z,11.99
2022-09-01T04:16:12.875Z,11.97
2022-09-01T04:17:12.851Z,11.94
2022-09-01T04:18:12.834Z,11.93
2022-09-01T04:19:12.805Z,11.90
2022-09-01T04:20:12.786Z,11.87
2022-09-01T04:21:12.785Z,11.85
2022-09-01T04:22:12.773Z,11.86
2022-09-01T04:23:12.786Z,11.86
2022-09-01T04:24:12.746Z,11.89
2022-09-01T04:25:12.746Z,11.89
2022-09-01T04:26:12.726Z,11.87
2022-09-01T04:27:12.751Z,11.90
2022-09-01T04:28:12.748Z,11.87
2022-09-01T04:29:12.699Z,11.87
2022-09-01T04:30:12.678Z,11.85
2022-09-01T04:31:12.705Z,11.82
2022-09-01T04:32:12.857Z,11.78
2022-09-01T04:33:12.678Z,11.74
2022-09-01T04:34:12.637Z,11.72
2022-09-01T04:35:12.627Z,11.68
2022-09-01T04:36:12.618Z,11.65
2022-09-01T04:37:12.636Z,11.61
2022-09-01T04:38:12.605Z,11.64
2022-09-01T04:39:12.587Z,11.65
2022-09-01T04:40:12.610Z,11.67
2022-09-01T04:41:12.559Z,11.67
2022-09-01T04:42:12.558Z,11.65
2022-09-01T04:43:12.568Z,11.68
2022-09-01T04:44:12.528Z,11.68
2022-09-01T04:45:12.527Z,11.65
2022-09-01T04:46:12.542Z,11.65
2022-09-01T04:47:12.498Z,11.67
2022-09-01T04:48:12.559Z,11.67
2022-09-01T04:49:13.367Z,11.67
2022-09-01T04:50:12.470Z,11.68
2022-09-01T04:51:12.459Z,11.71
2022-09-01T04:52:12.449Z,11.68
2022-09-01T04:53:12.458Z,11.68
2022-09-01T04:54:12.419Z,11.68
2022-09-01T04:55:12.411Z,11.70
2022-09-01T04:56:12.408Z,11.70
2022-09-01T04:57:12.392Z,11.67
2022-09-01T04:58:12.408Z,11.64
2022-09-01T04:59:12.372Z,11.61
2022-09-01T05:00:12.360Z,11.62
2022-09-01T05:01:12.382Z,11.62
2022-09-01T05:02:12.400Z,11.65
2022-09-01T05:03:12.322Z,11.65
2022-09-01T05:04:12.343Z,11.62
2022-09-01T05:05:12.302Z,11.62
2022-09-01T05:06:12.290Z,11.57
2022-09-01T05:07:12.281Z,11.57
2022-09-01T05:08:12.312Z,11.59
2022-09-01T05:09:12.262Z,11.57
2022-09-01T05:10:12.254Z,11.59
2022-09-01T05:11:12.241Z,11.59
2022-09-01T05:12:15.658Z,11.64
2022-09-01T05:13:12.232Z,11.67
2022-09-01T05:14:12.212Z,11.70
2022-09-01T05:15:12.192Z,11.70
2022-09-01T05:16:12.197Z,11.71
2022-09-01T05:17:12.173Z,11.72
2022-09-01T05:18:12.237Z,11.77
2022-09-01T05:19:12.145Z,11.78
2022-09-01T05:20:12.145Z,11.77
2022-09-01T05:21:12.125Z,11.77
2022-09-01T05:22:12.122Z,11.78
2022-09-01T05:23:12.124Z,11.80
2022-09-01T05:24:12.102Z,11.83
2022-09-01T05:25:12.082Z,11.83
2022-09-01T05:26:12.083Z,11.89
2022-09-01T05:27:12.056Z,11.93
2022-09-01T05:28:12.171Z,11.97
2022-09-01T05:29:12.035Z,11.99
2022-09-01T05:30:12.033Z,12.02
2022-09-01T05:31:12.052Z,12.05
2022-09-01T05:32:12.003Z,12.05
2022-09-01T05:33:12.015Z,12.08
2022-09-01T05:34:13.899Z,12.13
2022-09-01T05:35:11.965Z,12.15
2022-09-01T05:36:11.966Z,12.19
2022-09-01T05:37:11.953Z,12.21
2022-09-01T05:38:11.992Z,12.24
2022-09-01T05:39:11.934Z,12.27
2022-09-01T05:40:12.389Z,12.30
2022-09-01T05:41:11.904Z,12.33
2022-09-01T05:42:11.896Z,12.34
2022-09-01T05:43:11.904Z,12.39
2022-09-01T05:44:11.875Z,12.44
2022-09-01T05:45:11.870Z,12.46
2022-09-01T05:46:11.955Z,12.51
2022-09-01T05:47:11.843Z,12.54
2022-09-01T05:48:12.855Z,12.56
2022-09-01T05:49:11.816Z,12.59
2022-09-01T05:50:14.472Z,12.60
2022-09-01T05:51:33.519Z,12.62
2022-09-01T05:52:12.793Z,12.64
2022-09-01T05:53:12.875Z,12.67
2022-09-01T05:54:11.766Z,12.71
2022-09-01T05:55:11.756Z,12.77
2022-09-01T05:56:11.747Z,12.78
2022-09-01T05:57:33.325Z,12.81
2022-09-01T05:58:12.774Z,12.85
2022-09-01T05:59:27.268Z,12.89
2022-09-01T06:00:12.709Z,12.95
2022-09-01T06:01:11.687Z,13.02
2022-09-01T06:02:11.764Z,13.07
2022-09-01T06:03:11.872Z,13.15
2022-09-01T06:04:11.686Z,13.18
2022-09-01T06:05:11.655Z,13.24
2022-09-01T06:06:11.639Z,13.27
2022-09-01T06:07:13.616Z,13.33
2022-09-01T06:08:11.618Z,13.38
2022-09-01T06:09:11.608Z,13.43
2022-09-01T06:10:11.624Z,13.47
2022-09-01T06:11:11.581Z,13.54
2022-09-01T06:12:11.569Z,13.59
2022-09-01T06:13:11.561Z,13.63
2022-09-01T06:14:11.576Z,13.67
2022-09-01T06:15:11.539Z,13.73
2022-09-01T06:16:11.550Z,13.77
2022-09-01T06:17:11.518Z,13.81
2022-09-01T06:18:11.540Z,13.87
2022-09-01T06:19:11.513Z,13.92
2022-09-01T06:20:11.497Z,13.95
2022-09-01T06:21:11.488Z,14.01
2022-09-01T06:22:11.471Z,14.04
2022-09-01T06:23:11.451Z,14.10
2022-09-01T06:24:11.468Z,14.13
2022-09-01T06:25:11.493Z,14.19
2022-09-01T06:26:11.420Z,14.24
2022-09-01T06:27:11.408Z,14.28
2022-09-01T06:28:11.401Z,14.32
2022-09-01T06:29:11.388Z,14.37
2022-09-01T06:30:11.381Z,14.44
2022-09-01T06:31:11.412Z,14.50
2022-09-01T06:32:11.352Z,14.57
2022-09-01T06:33:11.343Z,14.64
2022-09-01T06:34:11.341Z,14.67
2022-09-01T06:35:11.342Z,14.71
2022-09-01T06:36:11.312Z,14.75
2022-09-01T06:37:11.301Z,14.81
2022-09-01T06:38:11.294Z,14.88
2022-09-01T06:39:11.273Z,14.95
2022-09-01T06:40:11.360Z,15.02
2022-09-01T06:41:11.272Z,15.05
2022-09-01T06:42:11.251Z,15.11
2022-09-01T06:43:11.241Z,15.13
2022-09-01T06:44:14.553Z,15.19
2022-09-01T06:45:11.234Z,15.19
2022-09-01T06:46:11.265Z,15.24
2022-09-01T06:47:11.183Z,15.30
2022-09-01T06:48:11.188Z,15.35
2022-09-01T06:49:11.171Z,15.39
2022-09-01T06:50:11.240Z,15.42
2022-09-01T06:51:16.104Z,15.49
2022-09-01T06:52:12.133Z,15.52
2022-09-01T06:54:12.527Z,15.59
2022-09-01T06:55:11.102Z,15.61
2022-09-01T06:56:11.124Z,15.68
2022-09-01T06:58:12.608Z,15.85
2022-09-01T06:59:11.056Z,15.89
2022-09-01T07:00:11.053Z,15.94
2022-09-01T07:01:11.064Z,16.00
2022-09-01T07:02:16.783Z,16.06
2022-09-01T07:03:12.016Z,16.11
2022-09-01T07:04:13.996Z,16.16
2022-09-01T07:05:59.541Z,16.22
2022-09-01T07:06:59.026Z,16.26
2022-09-01T07:08:11.957Z,16.35
2022-09-01T07:09:38.783Z,16.38
2022-09-01T07:10:21.273Z,16.48
2022-09-01T07:11:19.668Z,16.53
2022-09-01T07:13:11.981Z,16.67
2022-09-01T07:14:17.949Z,16.73
2022-09-01T07:17:27.147Z,16.96
2022-09-01T07:18:11.868Z,17.03
2022-09-01T07:19:10.848Z,17.10
2022-09-01T07:20:26.191Z,17.17
2022-09-01T07:22:35.830Z,17.29
2022-09-01T07:23:11.819Z,17.35
2022-09-01T07:24:11.496Z,17.38
2022-09-01T07:25:12.211Z,17.43
2022-09-01T07:26:10.769Z,17.47
2022-09-01T07:28:15.821Z,17.59
2022-09-01T07:29:10.729Z,17.67
2022-09-01T07:30:10.720Z,17.73
2022-09-01T07:35:11.953Z,17.89
2022-09-01T07:36:26.806Z,17.92
2022-09-01T07:43:11.605Z,18.25
2022-09-01T07:44:10.571Z,18.31
2022-09-01T07:45:26.932Z,18.40
2022-09-01T07:47:19.894Z,18.49
2022-09-01T07:48:11.609Z,18.52
2022-09-01T07:50:25.006Z,18.61
2022-09-01T07:52:11.483Z,18.68
2022-09-01T07:53:10.465Z,18.70
2022-09-01T07:54:10.483Z,18.72
2022-09-01T07:55:10.443Z,18.76
2022-09-01T07:56:10.434Z,18.82
2022-09-01T07:57:10.416Z,18.86
2022-09-01T07:58:10.415Z,18.92
2022-09-01T07:59:14.847Z,18.97
2022-09-01T08:00:11.418Z,19.01
2022-09-01T08:01:10.375Z,19.05
2022-09-01T08:02:10.410Z,19.08
2022-09-01T08:03:10.404Z,19.13
2022-09-01T08:04:10.377Z,19.15
2022-09-01T08:05:10.335Z,19.21
2022-09-01T08:06:10.326Z,19.28
2022-09-01T08:07:15.463Z,19.32
2022-09-01T08:08:18.863Z,19.35
2022-09-01T08:09:11.722Z,19.39
2022-09-01T08:10:10.281Z,19.43
2022-09-01T08:11:10.269Z,19.47
2022-09-01T08:12:10.264Z,19.51
2022-09-01T08:13:15.372Z,19.60
2022-09-01T08:14:11.237Z,19.68
2022-09-01T08:15:14.214Z,19.75
2022-09-01T08:16:18.769Z,19.79
2022-09-01T08:17:34.318Z,19.83
2022-09-01T08:18:14.079Z,19.87
2022-09-01T08:19:16.416Z,19.90
2022-09-01T08:20:11.172Z,19.94
2022-09-01T08:21:10.167Z,20.00
2022-09-01T08:22:10.151Z,20.06
2022-09-01T08:23:10.139Z,20.09
2022-09-01T08:24:17.210Z,20.13
2022-09-01T08:25:11.900Z,20.18
2022-09-01T08:26:10.110Z,20.21
2022-09-01T08:27:10.092Z,20.24
2022-09-01T08:28:10.082Z,20.28
2022-09-01T08:29:10.071Z,20.34
2022-09-01T08:30:10.113Z,20.35
2022-09-01T08:31:11.379Z,20.39
2022-09-01T08:32:10.044Z,20.46
2022-09-01T08:33:10.536Z,20.51
2022-09-01T08:34:10.024Z,20.59
2022-09-01T08:35:10.006Z,20.64
2022-09-01T08:36:10.097Z,20.68
2022-09-01T08:37:09.983Z,20.71
2022-09-01T08:38:09.975Z,20.74
2022-09-01T08:39:09.967Z,20.76
2022-09-01T08:40:10.008Z,20.79
2022-09-01T08:41:09.945Z,20.83
2022-09-01T08:42:09.944Z,20.86
2022-09-01T08:43:14.607Z,20.87
2022-09-01T08:44:10.915Z,20.90
2022-09-01T08:45:09.917Z,20.93
2022-09-01T08:46:09.951Z,20.96
2022-09-01T08:47:12.985Z,21.01
2022-09-01T08:49:27.303Z,21.08
2022-09-01T08:50:10.881Z,21.13
2022-09-01T08:51:14.941Z,21.20
2022-09-01T08:52:10.825Z,21.24
2022-09-01T08:53:09.989Z,21.27
2022-09-01T08:54:09.816Z,21.34
2022-09-01T08:55:09.795Z,21.38
2022-09-01T08:56:09.809Z,21.39
2022-09-01T08:57:09.770Z,21.45
2022-09-01T08:58:09.807Z,21.50
2022-09-01T08:59:09.745Z,21.53
2022-09-01T09:00:09.767Z,21.59
2022-09-01T09:01:09.823Z,21.63
2022-09-01T09:02:09.730Z,21.64
2022-09-01T09:03:09.755Z,21.69
2022-09-01T09:04:09.700Z,21.74
2022-09-01T09:05:16.760Z,21.79
2022-09-01T09:06:10.701Z,21.83
2022-09-01T09:07:09.662Z,21.91
2022-09-01T09:08:09.650Z,21.95
2022-09-01T09:09:09.643Z,21.98
2022-09-01T09:10:09.660Z,22.02
2022-09-01T09:11:09.613Z,22.07
2022-09-01T09:12:09.620Z,22.10
2022-09-01T09:13:09.603Z,22.17
2022-09-01T09:14:09.601Z,22.22
2022-09-01T09:15:09.603Z,22.25
2022-09-01T09:16:09.612Z,22.31
2022-09-01T09:17:09.573Z,22.34
2022-09-01T09:18:38.311Z,22.38
2022-09-01T09:19:10.558Z,22.44
2022-09-01T09:20:09.567Z,22.49
2022-09-01T09:21:09.513Z,22.54
2022-09-01T09:22:09.775Z,22.64
2022-09-01T09:23:09.491Z,22.75
2022-09-01T09:24:09.475Z,22.86
2022-09-01T09:25:09.468Z,22.92
2022-09-01T09:26:09.455Z,22.99
2022-09-01T09:27:09.652Z,23.08
2022-09-01T09:28:09.456Z,23.15
2022-09-01T09:29:09.418Z,23.26
2022-09-01T09:30:11.652Z,23.31
2022-09-01T09:31:09.439Z,23.39
2022-09-01T09:32:39.552Z,23.46
2022-09-01T09:33:51.384Z,23.53
2022-09-01T09:34:10.366Z,23.61
2022-09-01T09:35:09.356Z,23.68
2022-09-01T09:36:09.349Z,23.71
2022-09-01T09:37:09.347Z,23.85
2022-09-01T09:38:09.360Z,23.83
2022-09-01T09:39:09.339Z,24.01
2022-09-01T09:40:10.229Z,24.12
2022-09-01T09:41:17.740Z,24.26
2022-09-01T09:42:10.285Z,24.47
2022-09-01T09:43:09.268Z,24.53
2022-09-01T09:44:11.488Z,24.83
2022-09-01T09:45:09.899Z,25.12
2022-09-01T09:46:23.317Z,25.39
2022-09-01T09:47:27.218Z,25.62
2022-09-01T09:48:10.843Z,25.59
2022-09-01T09:49:09.215Z,25.93
2022-09-01T09:50:09.212Z,26.12
2022-09-01T09:51:09.190Z,25.75
2022-09-01T09:52:09.170Z,25.31
2022-09-01T09:53:09.322Z,25.07
2022-09-01T09:54:09.142Z,24.87
2022-09-01T09:55:09.141Z,24.94
2022-09-01T09:56:09.143Z,25.56
2022-09-01T09:57:09.114Z,25.17
2022-09-01T09:58:09.111Z,25.06
2022-09-01T09:59:09.105Z,25.28
2022-09-01T10:00:09.082Z,25.97
2022-09-01T10:01:09.177Z,25.87
2022-09-01T10:02:09.055Z,25.62
2022-09-01T10:03:11.219Z,25.47
2022-09-01T10:04:09.097Z,25.84
2022-09-01T10:05:09.025Z,26.04
2022-09-01T10:06:09.036Z,25.67
2022-09-01T10:07:09.012Z,25.28
2022-09-01T10:08:08.985Z,25.07
2022-09-01T10:09:09.078Z,25.44
2022-09-01T10:10:08.990Z,25.15
2022-09-01T10:11:08.988Z,25.54
2022-09-01T10:12:08.954Z,26.83
2022-09-01T10:13:08.950Z,27.61
2022-09-01T10:14:08.926Z,28.48
2022-09-01T10:15:12.535Z,29.28
2022-09-01T10:16:11.303Z,29.38
2022-09-01T10:17:09.026Z,30.08
2022-09-01T10:19:12.688Z,31.18
2022-09-01T10:20:08.860Z,31.65
2022-09-01T10:21:08.913Z,30.45
2022-09-01T10:22:08.839Z,29.41
2022-09-01T10:23:15.469Z,28.68
2022-09-01T10:24:17.773Z,29.53
2022-09-01T10:25:10.242Z,30.56
2022-09-01T10:26:09.548Z,31.13
2022-09-01T10:27:14.245Z,31.70
2022-09-01T10:28:09.801Z,31.93
2022-09-01T10:29:12.008Z,32.21
2022-09-01T10:30:24.215Z,32.48
2022-09-01T10:31:09.832Z,32.81
2022-09-01T10:32:31.293Z,32.03
2022-09-01T10:33:19.309Z,31.11
2022-09-01T10:34:09.743Z,31.82
2022-09-01T10:35:08.715Z,32.27
2022-09-01T10:36:08.696Z,32.61
2022-09-01T10:37:11.243Z,33.08
2022-09-01T10:38:12.000Z,33.48
2022-09-01T10:39:09.143Z,33.71
2022-09-01T10:40:08.680Z,33.89
2022-09-01T10:41:09.096Z,34.07
2022-09-01T10:42:09.655Z,34.07
2022-09-01T10:43:12.415Z,34.13
2022-09-01T10:44:08.627Z,33.51
2022-09-01T10:45:08.598Z,32.99
2022-09-01T10:46:09.201Z,33.53
2022-09-01T10:47:13.607Z,32.52
2022-09-01T10:48:08.597Z,31.35
2022-09-01T10:49:08.911Z,30.21
2022-09-01T10:50:10.083Z,29.35
2022-09-01T10:51:08.552Z,28.50
2022-09-01T10:52:13.140Z,28.04
2022-09-01T10:53:09.511Z,27.74
2022-09-01T10:54:08.530Z,27.41
2022-09-01T10:55:08.499Z,27.05
2022-09-01T10:56:18.641Z,27.01
2022-09-01T10:57:12.176Z,28.59
2022-09-01T10:58:09.554Z,29.90
2022-09-01T11:00:34.924Z,31.33
2022-09-01T11:01:10.916Z,32.10
2022-09-01T11:02:26.425Z,31.33
2022-09-01T11:04:09.547Z,29.74
2022-09-01T11:05:08.514Z,28.91
2022-09-01T11:06:13.014Z,28.47
2022-09-01T11:07:12.739Z,28.10
2022-09-01T11:08:15.747Z,27.64
2022-09-01T11:09:09.390Z,27.31
2022-09-01T11:10:11.738Z,27.09
2022-09-01T11:11:08.327Z,26.91
2022-09-01T11:12:08.347Z,26.77
2022-09-01T11:13:08.328Z,26.61
2022-09-01T11:14:08.297Z,26.43
2022-09-01T11:15:08.287Z,26.29
2022-09-01T11:16:08.309Z,26.21
2022-09-01T11:17:08.345Z,26.12
2022-09-01T11:18:08.257Z,26.12
2022-09-01T11:19:11.342Z,26.18
2022-09-01T11:20:09.229Z,26.25
2022-09-01T11:21:08.226Z,26.35
2022-09-01T11:22:08.230Z,27.76
2022-09-01T11:23:08.201Z,28.46
2022-09-01T11:24:08.190Z,29.26
2022-09-01T11:25:11.117Z,29.31
2022-09-01T11:26:23.439Z,30.43
2022-09-01T11:27:09.188Z,30.62
2022-09-01T11:28:08.149Z,29.89
2022-09-01T11:29:08.144Z,29.45
2022-09-01T11:30:08.135Z,29.04
2022-09-01T11:31:08.126Z,30.47
2022-09-01T11:32:08.164Z,30.34
2022-09-01T11:33:08.127Z,29.71
2022-09-01T11:34:08.099Z,29.57
2022-09-01T11:35:08.084Z,29.11
2022-09-01T11:36:08.071Z,28.91
2022-09-01T11:37:08.067Z,28.43
2022-09-01T11:38:08.056Z,28.14
2022-09-01T11:39:08.069Z,27.79
2022-09-01T11:40:08.062Z,27.59
2022-09-01T11:41:08.024Z,27.41
2022-09-01T11:42:08.008Z,27.21
2022-09-01T11:43:08.077Z,27.11
2022-09-01T11:44:07.979Z,26.99
2022-09-01T11:45:07.998Z,26.94
2022-09-01T11:46:08.044Z,26.76
2022-09-01T11:47:12.168Z,26.65
2022-09-01T11:48:08.930Z,26.74
2022-09-01T11:49:07.931Z,28.44
2022-09-01T11:50:07.942Z,29.74
2022-09-01T11:51:07.909Z,29.94
2022-09-01T11:52:08.899Z,29.68
2022-09-01T11:53:07.910Z,29.18
2022-09-01T11:54:07.892Z,30.40
2022-09-01T11:55:07.880Z,31.62
2022-09-01T11:56:07.873Z,32.47
2022-09-01T11:57:07.860Z,32.76
2022-09-01T11:58:07.832Z,32.49
2022-09-01T11:59:07.824Z,31.77
2022-09-01T12:00:07.846Z,31.08
2022-09-01T12:01:07.813Z,31.65
2022-09-01T12:02:07.884Z,32.66
2022-09-01T12:03:07.921Z,32.05
2022-09-01T12:04:07.774Z,32.99
2022-09-01T12:05:07.765Z,33.76
2022-09-01T12:06:07.766Z,34.35
2022-09-01T12:07:10.750Z,34.79
2022-09-01T12:08:07.726Z,35.10
2022-09-01T12:09:07.718Z,35.28
2022-09-01T12:10:07.709Z,35.01
2022-09-01T12:11:07.697Z,35.32
2022-09-01T12:12:07.708Z,35.67
2022-09-01T12:13:07.679Z,36.01
2022-09-01T12:14:11.162Z,36.46
2022-09-01T12:15:07.666Z,36.83
2022-09-01T12:16:17.876Z,37.02
2022-09-01T12:17:08.726Z,37.28
2022-09-01T12:18:07.630Z,37.43
2022-09-01T12:19:07.620Z,37.55
2022-09-01T12:20:07.610Z,37.59
2022-09-01T12:21:07.601Z,37.86
2022-09-01T12:22:07.613Z,38.14
2022-09-01T12:23:07.602Z,38.12
2022-09-01T12:24:07.572Z,38.26
2022-09-01T12:25:07.563Z,38.44
2022-09-01T12:26:07.552Z,38.45
2022-09-01T12:27:07.544Z,38.57
2022-09-01T12:28:07.553Z,38.41
2022-09-01T12:29:07.527Z,38.39
2022-09-01T12:30:07.515Z,38.52
2022-09-01T12:31:07.624Z,38.52
2022-09-01T12:32:07.543Z,38.33
2022-09-01T12:33:23.964Z,38.27
2022-09-01T12:34:08.490Z,38.38
2022-09-01T12:35:11.491Z,38.39
2022-09-01T12:36:07.458Z,38.36
2022-09-01T12:37:07.449Z,38.48
2022-09-01T12:38:09.666Z,38.60
2022-09-01T12:39:07.425Z,38.60
2022-09-01T12:40:07.763Z,38.51
2022-09-01T12:41:07.576Z,38.33
2022-09-01T12:42:07.400Z,38.27
2022-09-01T12:43:07.883Z,38.45
2022-09-01T12:44:07.400Z,38.61
2022-09-01T12:45:08.853Z,38.75
2022-09-01T12:46:07.413Z,38.63
2022-09-01T12:47:07.341Z,38.70
2022-09-01T12:48:07.342Z,38.23
2022-09-01T12:49:07.400Z,38.41
2022-09-01T12:50:07.332Z,38.82
2022-09-01T12:51:09.363Z,38.67
2022-09-01T12:52:07.303Z,38.83
2022-09-01T12:53:08.446Z,39.33
2022-09-01T12:54:09.368Z,39.62
2022-09-01T12:55:07.284Z,39.21
2022-09-01T12:56:07.265Z,38.44
2022-09-01T12:57:07.263Z,38.36
2022-09-01T12:58:07.248Z,38.83
2022-09-01T12:59:10.747Z,39.10
2022-09-01T13:00:08.233Z,37.88
2022-09-01T13:01:07.280Z,38.11
2022-09-01T13:02:08.513Z,37.77
2022-09-01T13:03:08.256Z,36.73
2022-09-01T13:04:07.216Z,35.47
2022-09-01T13:05:07.217Z,34.95
2022-09-01T13:06:07.993Z,34.69
2022-09-01T13:07:07.696Z,34.02
2022-09-01T13:08:07.652Z,33.53
2022-09-01T13:09:07.160Z,33.36
2022-09-01T13:10:07.346Z,33.29
2022-09-01T13:11:07.140Z,33.10
2022-09-01T13:12:07.884Z,33.76
2022-09-01T13:13:07.121Z,34.74
2022-09-01T13:14:07.100Z,35.58
2022-09-01T13:15:07.154Z,36.20
2022-09-01T13:16:07.126Z,36.04
2022-09-01T13:17:13.903Z,36.52